createdAt,value
2023-03-03T16:57:10.058Z,97902.00
2023-03-03T16:59:18.646Z,97908.00
2023-03-03T17:01:23.740Z,97913.00
2023-03-03T17:03:11.101Z,97909.00
2023-03-03T17:05:04.911Z,97917.00
2023-03-03T17:06:53.064Z,97912.00
2023-03-03T17:08:34.593Z,97911.00
2023-03-03T17:10:25.591Z,97915.00
2023-03-03T17:12:18.911Z,97918.00
2023-03-03T17:14:35.992Z,97922.00
2023-03-03T17:16:51.878Z,97928.00
2023-03-03T17:19:01.691Z,97923.00
2023-03-03T17:21:00.588Z,97934.00
2023-03-03T17:22:47.757Z,97932.00
2023-03-03T17:24:52.378Z,97929.00
2023-03-03T17:26:40.673Z,97941.00
2023-03-03T17:28:22.114Z,97938.00
2023-03-03T17:30:12.635Z,97939.00
2023-03-03T17:32:12.623Z,97939.00
2023-03-03T17:34:09.297Z,97939.00
2023-03-03T17:36:09.562Z,97938.00
2023-03-03T17:38:00.441Z,97939.00
2023-03-03T17:39:50.782Z,97942.00
2023-03-03T17:42:09.862Z,97943.00
2023-03-03T17:43:57.408Z,97944.00
2023-03-03T17:45:40.964Z,97955.00
2023-03-03T17:47:31.076Z,97956.00
2023-03-03T17:49:44.015Z,97963.00
2023-03-03T17:51:35.992Z,97960.00
2023-03-03T17:53:43.578Z,97965.00
2023-03-03T17:55:30.744Z,97968.00
2023-03-03T17:57:25.623Z,97968.00
2023-03-03T17:59:30.077Z,97970.00
2023-03-03T18:01:39.146Z,97967.00
2023-03-03T18:03:34.747Z,97983.00
2023-03-03T18:05:46.235Z,97985.00
2023-03-03T18:07:40.522Z,97984.00
2023-03-03T18:09:25.599Z,97976.00
2023-03-03T18:11:20.790Z,97982.00
2023-03-03T18:13:22.460Z,97983.00
2023-03-03T18:15:19.382Z,97981.00
2023-03-03T18:17:22.500Z,97993.00
2023-03-03T18:19:25.369Z,97989.00
2023-03-03T18:21:16.598Z,97992.00
2023-03-03T18:22:58.175Z,97998.00
2023-03-03T18:24:49.385Z,97997.00
2023-03-03T18:26:30.877Z,98001.00
2023-03-03T18:28:20.179Z,98000.00
2023-03-03T18:30:24.545Z,97999.00
2023-03-03T18:32:40.091Z,98002.00
2023-03-03T18:34:21.576Z,97994.00
2023-03-03T18:36:27.302Z,97999.00
2023-03-03T18:38:17.806Z,97996.00
2023-03-03T18:40:02.242Z,97997.00
2023-03-03T18:42:23.348Z,97998.00
2023-03-03T18:44:29.676Z,98001.00
2023-03-03T18:46:19.987Z,98006.00
2023-03-03T18:48:01.558Z,98004.00
2023-03-03T18:50:03.865Z,98008.00
2023-03-03T18:51:45.797Z,98018.00
2023-03-03T18:53:30.853Z,98022.00
2023-03-03T18:55:12.308Z,98017.00
2023-03-03T18:56:53.828Z,98015.00
2023-03-03T18:58:36.928Z,98034.00
2023-03-03T19:00:27.366Z,98035.00
2023-03-03T19:02:33.221Z,98026.00
2023-03-03T19:04:16.250Z,98030.00
2023-03-03T19:05:58.512Z,98037.00
2023-03-03T19:07:39.948Z,98036.00
2023-03-03T19:09:46.466Z,98039.00
2023-03-03T19:11:49.834Z,98049.00
2023-03-03T19:13:34.263Z,98046.00
2023-03-03T19:15:35.684Z,98046.00
2023-03-03T19:17:17.407Z,98050.00
2023-03-03T19:19:00.387Z,98044.00
2023-03-03T19:20:46.170Z,98038.00
2023-03-03T19:22:29.910Z,98044.00
2023-03-03T19:24:40.678Z,98048.00
2023-03-03T19:26:24.913Z,98048.00
2023-03-03T19:28:15.378Z,98045.00
2023-03-03T19:30:22.815Z,98045.00
2023-03-03T19:32:13.489Z,98046.00
2023-03-03T19:34:19.189Z,98043.00
2023-03-03T19:36:22.471Z,98050.00
2023-03-03T19:41:40.566Z,98046.00
2023-03-03T19:45:23.449Z,98052.00
2023-03-03T19:47:25.352Z,98059.00
2023-03-03T19:49:22.253Z,98051.00
2023-03-03T19:51:20.632Z,98055.00
2023-03-03T19:53:16.942Z,98060.00
2023-03-03T19:55:29.094Z,98060.00
2023-03-03T19:57:49.609Z,98061.00
2023-03-03T19:59:42.825Z,98050.00
2023-03-03T20:01:36.675Z,98048.00
2023-03-03T20:03:39.137Z,98051.00
2023-03-03T20:05:32.440Z,98052.00
2023-03-03T20:07:28.839Z,98054.00
2023-03-03T20:09:33.561Z,98056.00
2023-03-03T20:11:37.785Z,98060.00
2023-03-03T20:13:25.352Z,98063.00
2023-03-03T20:15:14.957Z,98068.00
2023-03-03T20:16:58.247Z,98064.00
2023-03-03T20:19:01.406Z,98070.00
2023-03-03T20:21:01.049Z,98074.00
2023-03-03T20:23:05.458Z,98067.00
2023-03-03T20:25:15.481Z,98063.00
2023-03-03T20:27:00.592Z,98061.00
2023-03-03T20:28:53.796Z,98064.00
2023-03-03T20:30:58.826Z,98066.00
2023-03-03T20:33:04.886Z,98070.00
2023-03-03T20:34:49.321Z,98071.00
2023-03-03T20:36:33.785Z,98072.00
2023-03-03T20:38:52.949Z,98076.00
2023-03-03T20:40:37.051Z,98075.00
2023-03-03T20:42:36.816Z,98077.00
2023-03-03T20:44:47.877Z,98081.00
2023-03-03T20:48:46.839Z,98085.00
2023-03-03T20:50:45.809Z,98082.00
2023-03-03T20:53:02.245Z,98090.00
2023-03-03T20:55:10.606Z,98085.00
2023-03-03T21:03:15.613Z,98091.00
2023-03-03T21:05:26.638Z,98092.00
2023-03-03T21:07:08.253Z,98100.00
2023-03-03T21:08:56.859Z,98096.00
2023-03-03T21:10:39.849Z,98096.00
2023-03-03T21:12:28.901Z,98095.00
2023-03-03T21:14:22.050Z,98097.00
2023-03-03T21:16:26.413Z,98099.00
2023-03-03T21:18:22.112Z,98099.00
2023-03-03T21:20:26.926Z,98101.00
2023-03-03T21:22:09.696Z,98089.00
2023-03-03T21:23:51.283Z,98096.00
2023-03-03T21:25:47.566Z,98096.00
2023-03-03T21:27:33.220Z,98097.00
2023-03-03T21:29:28.775Z,98103.00
2023-03-03T21:31:13.706Z,98104.00
2023-03-03T21:32:55.332Z,98105.00
2023-03-03T21:34:38.315Z,98106.00
2023-03-03T21:36:32.894Z,98108.00
2023-03-03T21:38:18.472Z,98108.00
2023-03-03T21:40:24.978Z,98103.00
2023-03-03T21:42:16.556Z,98108.00
2023-03-03T21:43:58.225Z,98113.00
2023-03-03T21:45:42.217Z,98118.00
2023-03-03T21:47:27.054Z,98117.00
